Aérodrome :
LOGIN :

S'inscrire | Disclaimer

   EN    FR    IT 

 










Légende :    VFR   VFR Marginal   IFR   IFR Intensif   IFR Très Intensif
Visi : 
Plafond : 
>= 8 km
>= 3000ft
5 à 8 km
1000 à 3000 ft
1500m à 5 km
500 à 1000 ft
800 à 1500m
200 à 500 ft
< 800m
< 200 ft
Symboles :   Orages  Brouillard  Fortes neiges  Fortes précipitations  Vent > 20 kt
SIGMETs :   Divers  Orages  Givrage  Turbulence  Onde Orograph.  Cendres Volcan.







- Altitude de l'aérodrome : 36 ft
- Code IATA : LTQ
- Voir les cartes d'approche


LFAT - Le Touquet

DERNIER METAR :
  • 270630Z AUTO VRB02KT 9999 BKN007 BKN054 14/13 Q1012 TEMPO 3000 BR BECMG SCT030

METARs EXPIRÉS :
  • 270600Z AUTO VRB02KT 8000 SCT003 SCT007 BKN046 13/13 Q1012 TEMPO 3000 BR BKN005
  • 270530Z AUTO 13001KT 4500 BR FEW002 SCT043 13/13 Q1012
  • 270500Z AUTO 00000KT 6000 SCT005 BKN038 BKN045 12/12 Q1012
  • 270430Z AUTO VRB02KT 5000 BR BKN005 OVC047 12/12 Q1012
  • 270400Z AUTO VRB03KT 4100 BR BKN004 OVC056 12/12 Q1011

TAF TAF LFAT
Valide du 27 à 06h jusqu'au 27 à 15h UTC


270500Z 2706/2715 VRB02KT 9999 SCT030
TEMPO 2706/2708 3000 BR BKN005
BECMG 2708/2710 26010KT
TEMPO 2713/2715 26015G25KT
ATIS : +33 3 21 06 62 84
Pas de NOTAMs connus pour ce terrain.



MET'MAP, la Météo Aéronautique d'un coup d'oeil ! - Copyright ORBIFLY Décembre 2007 - Disclaimer

ORBIFLY MET'MAP TEAM :

Programmation & Développement : Alexandra Zaïnal
Conception & Développement : Baudouin d'Aumeries
Co-Programmation & Développement : Marc-Olivier Méhu
Soutien technique & logistique : Manuel Goepfert

Contact : metmap@orbifly.com




SOURCES & CREDITS :

   NOAA